Time;durP1;ratioP1;P1;durP2;ratioP2;P2;SDS_P1;SDS_P2;PMS_P1;PMS_P2;Temp;Humidity;BMP_temperature;BMP_pressure;BME280_temperature;BME280_humidity;BME280_pressure;Samples;Min_cycle;Max_cycle;Signal;HPM_P1;HPM_P2
2022/06/10 00:00:28;;;;;;;7.53;3.13;;;;;;;;;;5101803;28;20623;-63
2022/06/10 00:02:57;;;;;;;9.40;4.23;;;;;;;;;;5098621;28;20205;-63
2022/06/10 00:05:28;;;;;;;10.73;4.20;;;;;;;;;;5097102;28;20213;-63
2022/06/10 00:07:57;;;;;;;5.57;2.93;;;;;;;;;;5093121;28;20249;-63
2022/06/10 00:10:27;;;;;;;9.43;3.70;;;;;;;;;;5090656;28;20289;-63
2022/06/10 00:12:55;;;;;;;7.67;3.70;;;;;;;;;;5094730;28;20202;-63
2022/06/10 00:15:23;;;;;;;7.77;3.47;;;;;;;;;;5097525;28;21236;-63
2022/06/10 00:17:52;;;;;;;11.53;3.20;;;;;;;;;;5098096;28;20263;-63
2022/06/10 00:20:22;;;;;;;11.37;4.83;;;;;;;;;;5107361;28;20637;-62
2022/06/10 00:22:50;;;;;;;9.33;6.03;;;;;;;;;;5095084;28;20249;-63
2022/06/10 00:25:18;;;;;;;13.73;6.30;;;;;;;;;;5096538;28;20197;-63
2022/06/10 00:27:48;;;;;;;10.63;5.37;;;;;;;;;;5085633;28;20252;-62
2022/06/10 00:30:17;;;;;;;9.13;4.60;;;;;;;;;;5107897;28;20224;-62
2022/06/10 00:32:45;;;;;;;6.97;2.57;;;;;;;;;;5096266;28;20229;-63
2022/06/10 00:35:13;;;;;;;13.27;3.57;;;;;;;;;;5087967;28;20237;-62
2022/06/10 00:37:41;;;;;;;5.43;2.40;;;;;;;;;;5090932;28;20236;-63
2022/06/10 00:40:11;;;;;;;4.30;1.80;;;;;;;;;;5085538;28;20715;-62
2022/06/10 00:42:39;;;;;;;4.40;1.80;;;;;;;;;;5095325;28;20225;-63
2022/06/10 00:45:21;;;;;;;5.13;1.57;;;;;;;;;;5104086;28;20232;-63
2022/06/10 00:47:51;;;;;;;3.73;1.20;;;;;;;;;;5091455;28;20264;-63
2022/06/10 00:50:20;;;;;;;3.53;1.53;;;;;;;;;;5098399;28;20202;-62
2022/06/10 00:52:50;;;;;;;4.90;1.93;;;;;;;;;;5094465;28;20676;-63
2022/06/10 00:55:28;;;;;;;3.77;1.53;;;;;;;;;;5102946;28;20229;-63
2022/06/10 00:58:00;;;;;;;5.13;1.37;;;;;;;;;;5100321;28;20256;-63
2022/06/10 01:00:29;;;;;;;8.07;1.50;;;;;;;;;;5103319;28;20268;-63
2022/06/10 01:02:58;;;;;;;3.50;1.27;;;;;;;;;;5102672;28;20901;-63
2022/06/10 01:05:27;;;;;;;6.80;2.40;;;;;;;;;;5107992;28;20201;-63
2022/06/10 01:07:57;;;;;;;4.77;1.57;;;;;;;;;;5104820;28;20724;-63
2022/06/10 01:10:25;;;;;;;5.00;1.63;;;;;;;;;;5101047;28;20206;-63
2022/06/10 01:13:03;;;;;;;3.57;1.50;;;;;;;;;;5099554;28;20194;-63
2022/06/10 01:15:36;;;;;;;4.33;1.40;;;;;;;;;;5100704;28;20223;-62
2022/06/10 01:18:17;;;;;;;4.83;1.30;;;;;;;;;;5102561;28;20692;-62
2022/06/10 01:20:51;;;;;;;3.03;2.57;;;;;;;;;;5096597;28;20236;-63
2022/06/10 01:23:34;;;;;;;5.60;2.00;;;;;;;;;;5103414;28;20263;-62
2022/06/10 01:26:26;;;;;;;4.67;1.37;;;;;;;;;;5099750;28;20275;-63
2022/06/10 01:29:02;;;;;;;4.67;1.37;;;;;;;;;;5108174;28;20206;-63
2022/06/10 01:31:34;;;;;;;4.87;1.03;;;;;;;;;;5106233;28;20240;-62
2022/06/10 01:34:16;;;;;;;3.97;1.70;;;;;;;;;;5098762;28;20205;-63
2022/06/10 01:36:49;;;;;;;5.30;2.13;;;;;;;;;;5099814;28;20256;-63
2022/06/10 01:39:21;;;;;;;4.57;1.73;;;;;;;;;;5096094;28;20228;-62
2022/06/10 01:41:51;;;;;;;2.57;1.30;;;;;;;;;;5096348;28;20261;-62
2022/06/10 01:44:27;;;;;;;4.23;1.40;;;;;;;;;;5094253;28;20194;-63
2022/06/10 01:46:59;;;;;;;3.40;1.23;;;;;;;;;;5097834;28;20302;-63
2022/06/10 01:49:30;;;;;;;3.90;1.23;;;;;;;;;;5097904;28;20205;-62
2022/06/10 01:51:59;;;;;;;5.60;1.60;;;;;;;;;;5098754;28;20255;-63
2022/06/10 01:54:32;;;;;;;3.93;1.23;;;;;;;;;;5093464;28;20202;-63
2022/06/10 01:57:03;;;;;;;4.43;1.30;;;;;;;;;;5098492;28;20247;-63
2022/06/10 01:59:33;;;;;;;4.13;1.30;;;;;;;;;;5091882;28;20231;-63
2022/06/10 02:02:04;;;;;;;3.07;1.30;;;;;;;;;;5101646;28;20262;-63
2022/06/10 02:04:34;;;;;;;5.57;1.60;;;;;;;;;;5095876;28;20233;-63
2022/06/10 02:07:04;;;;;;;5.07;1.50;;;;;;;;;;5095627;28;20659;-63
2022/06/10 02:09:36;;;;;;;3.80;1.40;;;;;;;;;;5092743;28;20660;-63
2022/06/10 02:12:06;;;;;;;4.80;1.57;;;;;;;;;;5098388;28;20252;-62
2022/06/10 02:14:46;;;;;;;4.30;1.80;;;;;;;;;;5097733;28;20196;-63
2022/06/10 02:17:18;;;;;;;4.93;1.47;;;;;;;;;;5098466;28;20688;-63
2022/06/10 02:19:47;;;;;;;3.50;1.27;;;;;;;;;;5097336;28;20197;-63
2022/06/10 02:22:17;;;;;;;2.50;1.17;;;;;;;;;;5086239;28;20253;-63
2022/06/10 02:24:47;;;;;;;7.13;2.60;;;;;;;;;;5093506;28;20240;-62
2022/06/10 02:27:17;;;;;;;6.67;1.77;;;;;;;;;;5093261;28;20257;-63
2022/06/10 02:29:50;;;;;;;5.17;1.57;;;;;;;;;;5093219;28;20201;-63
2022/06/10 02:32:19;;;;;;;5.50;1.50;;;;;;;;;;5095975;28;20248;-63
2022/06/10 02:34:48;;;;;;;5.43;1.37;;;;;;;;;;5099695;28;20263;-63
2022/06/10 02:37:20;;;;;;;3.90;1.27;;;;;;;;;;5105600;28;20408;-60
2022/06/10 02:39:53;;;;;;;6.67;1.53;;;;;;;;;;5097479;28;20209;-61
2022/06/10 02:42:25;;;;;;;6.80;1.73;;;;;;;;;;5099443;28;20263;-62
2022/06/10 02:44:57;;;;;;;4.87;1.40;;;;;;;;;;5092652;28;20225;-61
2022/06/10 02:47:29;;;;;;;8.07;1.40;;;;;;;;;;5094975;28;20278;-61
2022/06/10 02:49:59;;;;;;;6.93;1.63;;;;;;;;;;5097308;28;20553;-61
2022/06/10 02:52:31;;;;;;;3.07;1.60;;;;;;;;;;5091443;28;20233;-61
2022/06/10 02:54:59;;;;;;;2.53;1.40;;;;;;;;;;5106885;28;20608;-61
2022/06/10 03:01:11;;;;;;;4.10;1.60;;;;;;;;;;5098147;28;20278;-61
2022/06/10 03:03:22;;;;;;;2.80;1.60;;;;;;;;;;5039194;28;20266;-61
2022/06/10 03:05:54;;;;;;;7.03;1.90;;;;;;;;;;5087334;28;20224;-61
2022/06/10 03:08:26;;;;;;;4.40;1.83;;;;;;;;;;5094521;28;20206;-61
2022/06/10 03:11:00;;;;;;;6.93;2.33;;;;;;;;;;5094122;28;20941;-61
2022/06/10 03:13:35;;;;;;;5.33;1.57;;;;;;;;;;5093598;28;20247;-61
2022/06/10 03:16:09;;;;;;;3.27;1.10;;;;;;;;;;5094344;28;20248;-62
2022/06/10 03:18:46;;;;;;;5.13;1.90;;;;;;;;;;5096071;28;20243;-61
2022/06/10 03:21:18;;;;;;;3.03;1.20;;;;;;;;;;5096494;28;20227;-61
2022/06/10 03:23:50;;;;;;;4.80;1.50;;;;;;;;;;5091539;28;20256;-61
2022/06/10 03:26:22;;;;;;;3.90;1.33;;;;;;;;;;5097104;28;20277;-62
2022/06/10 03:28:51;;;;;;;4.40;1.30;;;;;;;;;;5094203;28;20319;-61
2022/06/10 03:31:24;;;;;;;4.93;1.30;;;;;;;;;;5096151;28;20229;-61
2022/06/10 03:33:56;;;;;;;3.47;1.77;;;;;;;;;;5097247;28;20544;-61
2022/06/10 03:36:26;;;;;;;3.73;1.20;;;;;;;;;;5091109;28;20256;-61
2022/06/10 03:38:55;;;;;;;4.37;2.40;;;;;;;;;;5097492;28;20240;-61
2022/06/10 03:41:24;;;;;;;3.10;1.10;;;;;;;;;;5094883;28;20213;-61
2022/06/10 03:43:53;;;;;;;4.10;2.10;;;;;;;;;;5096044;28;20226;-61
2022/06/10 03:46:23;;;;;;;2.33;1.13;;;;;;;;;;5096142;28;20216;-61
2022/06/10 03:48:52;;;;;;;5.93;1.67;;;;;;;;;;5096092;28;20288;-61
2022/06/10 03:51:22;;;;;;;2.63;1.33;;;;;;;;;;5096097;28;20202;-61
2022/06/10 03:53:50;;;;;;;5.03;1.70;;;;;;;;;;5093764;28;20194;-61
2022/06/10 03:56:22;;;;;;;5.63;1.60;;;;;;;;;;5094426;28;20270;-61
2022/06/10 03:58:50;;;;;;;5.13;1.43;;;;;;;;;;5095440;28;20202;-61
2022/06/10 04:01:18;;;;;;;5.07;1.50;;;;;;;;;;5096194;28;20229;-61
2022/06/10 04:03:47;;;;;;;6.57;1.80;;;;;;;;;;5095598;28;20222;-62
2022/06/10 04:06:16;;;;;;;5.23;2.00;;;;;;;;;;5097062;28;20225;-61
2022/06/10 04:09:05;;;;;;;4.70;1.43;;;;;;;;;;5095305;28;20216;-62
2022/06/10 04:11:33;;;;;;;4.20;1.70;;;;;;;;;;5092892;28;20661;-61
2022/06/10 04:14:01;;;;;;;3.23;1.40;;;;;;;;;;5093515;28;20194;-62
2022/06/10 04:16:29;;;;;;;5.40;1.90;;;;;;;;;;5091816;28;21274;-61
2022/06/10 04:18:58;;;;;;;6.53;1.37;;;;;;;;;;5092570;28;20215;-61
2022/06/10 04:21:26;;;;;;;2.77;1.37;;;;;;;;;;5094103;28;20323;-62
2022/06/10 04:23:54;;;;;;;5.83;1.20;;;;;;;;;;5094211;28;20221;-62
2022/06/10 04:26:24;;;;;;;4.17;1.30;;;;;;;;;;5092930;28;20221;-61
2022/06/10 04:28:52;;;;;;;1.60;1.20;;;;;;;;;;5096105;28;20205;-61
2022/06/10 04:31:20;;;;;;;3.60;1.27;;;;;;;;;;5098600;28;20720;-61
2022/06/10 04:33:48;;;;;;;7.60;1.93;;;;;;;;;;5098576;28;20250;-61
2022/06/10 04:36:18;;;;;;;5.90;1.60;;;;;;;;;;5098384;28;20624;-61
2022/06/10 04:38:46;;;;;;;4.47;1.23;;;;;;;;;;5103126;28;20225;-61
2022/06/10 04:41:15;;;;;;;5.47;1.47;;;;;;;;;;5098777;28;20653;-62
2022/06/10 04:43:44;;;;;;;2.87;1.70;;;;;;;;;;5100356;28;20233;-61
2022/06/10 04:46:17;;;;;;;3.33;1.77;;;;;;;;;;5097600;28;20589;-62
2022/06/10 04:48:45;;;;;;;5.73;1.33;;;;;;;;;;5098077;28;20216;-62
2022/06/10 04:51:13;;;;;;;3.67;1.07;;;;;;;;;;5098519;28;20202;-62
2022/06/10 04:53:41;;;;;;;6.37;1.20;;;;;;;;;;5100008;28;20198;-62
2022/06/10 04:56:09;;;;;;;5.30;1.70;;;;;;;;;;5100294;28;20285;-62
2022/06/10 04:58:37;;;;;;;3.20;1.60;;;;;;;;;;5099972;28;20201;-62
2022/06/10 05:01:07;;;;;;;3.30;1.40;;;;;;;;;;5097831;28;20197;-61
2022/06/10 05:03:36;;;;;;;3.20;1.30;;;;;;;;;;5098181;28;20692;-62
2022/06/10 05:06:04;;;;;;;9.37;1.50;;;;;;;;;;5098333;28;20263;-62
2022/06/10 05:08:32;;;;;;;6.63;1.70;;;;;;;;;;5100096;28;20243;-62
2022/06/10 05:11:00;;;;;;;2.03;1.07;;;;;;;;;;5099561;28;20225;-62
2022/06/10 05:13:28;;;;;;;5.13;1.70;;;;;;;;;;5100657;28;20213;-62
2022/06/10 05:15:56;;;;;;;6.40;2.23;;;;;;;;;;5099906;28;20224;-62
2022/06/10 05:18:26;;;;;;;6.17;1.90;;;;;;;;;;5111250;28;20204;-62
2022/06/10 05:20:54;;;;;;;7.93;2.07;;;;;;;;;;5099503;28;20203;-62
2022/06/10 05:23:23;;;;;;;5.30;1.60;;;;;;;;;;5097870;28;20280;-62
2022/06/10 05:25:51;;;;;;;3.90;1.77;;;;;;;;;;5080926;28;20567;-62
2022/06/10 05:28:20;;;;;;;6.33;1.97;;;;;;;;;;5105183;28;20208;-62
2022/06/10 05:30:48;;;;;;;4.47;3.40;;;;;;;;;;5096231;28;20236;-62
2022/06/10 05:33:17;;;;;;;6.37;1.93;;;;;;;;;;5098722;28;20232;-62
2022/06/10 05:35:47;;;;;;;5.20;1.87;;;;;;;;;;5097637;28;20232;-62
2022/06/10 05:38:16;;;;;;;3.30;2.10;;;;;;;;;;5096993;28;20237;-62
2022/06/10 05:40:44;;;;;;;3.33;1.33;;;;;;;;;;5099655;28;20202;-62
2022/06/10 05:43:12;;;;;;;2.67;1.77;;;;;;;;;;5108184;28;20219;-62
2022/06/10 05:45:42;;;;;;;2.83;1.57;;;;;;;;;;5093682;28;20225;-62
2022/06/10 05:48:11;;;;;;;6.97;1.80;;;;;;;;;;5096804;28;20197;-62
2022/06/10 05:50:41;;;;;;;5.30;2.13;;;;;;;;;;5106019;28;20233;-62
2022/06/10 05:53:12;;;;;;;3.90;1.50;;;;;;;;;;5099378;28;20236;-61
2022/06/10 05:55:40;;;;;;;5.53;1.97;;;;;;;;;;5095596;28;20285;-61
2022/06/10 05:58:08;;;;;;;5.93;1.80;;;;;;;;;;5105948;28;20226;-65
2022/06/10 06:00:37;;;;;;;8.63;2.60;;;;;;;;;;5099016;28;20237;-62
2022/06/10 06:03:05;;;;;;;4.93;1.33;;;;;;;;;;5092730;28;20327;-62
2022/06/10 06:05:34;;;;;;;7.73;1.33;;;;;;;;;;5100685;28;20222;-62
2022/06/10 06:08:02;;;;;;;4.60;1.30;;;;;;;;;;5098495;28;20248;-62
2022/06/10 06:10:32;;;;;;;5.87;1.30;;;;;;;;;;5094486;28;20237;-62
2022/06/10 06:13:00;;;;;;;5.53;1.57;;;;;;;;;;5091790;28;20543;-62
2022/06/10 06:15:28;;;;;;;2.70;1.87;;;;;;;;;;5093940;28;20205;-62
2022/06/10 06:17:56;;;;;;;5.33;1.80;;;;;;;;;;5088476;28;20218;-61
2022/06/10 06:20:25;;;;;;;4.33;1.47;;;;;;;;;;5099095;28;20210;-62
2022/06/10 06:22:53;;;;;;;6.20;2.00;;;;;;;;;;5088775;28;20204;-62
2022/06/10 06:25:22;;;;;;;6.73;1.50;;;;;;;;;;5094314;28;20246;-62
2022/06/10 06:27:52;;;;;;;5.03;1.57;;;;;;;;;;5098140;28;20257;-62
2022/06/10 06:30:22;;;;;;;4.30;2.00;;;;;;;;;;5092553;28;20531;-62
2022/06/10 06:32:50;;;;;;;4.83;1.60;;;;;;;;;;5094731;28;20286;-62
2022/06/10 06:35:18;;;;;;;5.87;1.70;;;;;;;;;;5095326;28;20281;-62
2022/06/10 06:37:47;;;;;;;3.80;1.40;;;;;;;;;;5099015;28;20708;-62
2022/06/10 06:40:15;;;;;;;3.33;2.10;;;;;;;;;;5098397;28;20239;-67
2022/06/10 06:42:44;;;;;;;8.70;1.93;;;;;;;;;;5100300;28;20206;-61
2022/06/10 06:45:15;;;;;;;4.17;1.73;;;;;;;;;;5092460;28;20217;-61
2022/06/10 06:47:53;;;;;;;5.70;1.60;;;;;;;;;;5092874;28;21002;-61
2022/06/10 06:50:23;;;;;;;5.00;1.77;;;;;;;;;;5094489;28;20665;-61
2022/06/10 06:52:53;;;;;;;4.60;1.80;;;;;;;;;;5098604;28;20259;-61
2022/06/10 06:55:32;;;;;;;4.37;1.80;;;;;;;;;;5098289;28;20197;-64
2022/06/10 06:58:00;;;;;;;4.40;1.80;;;;;;;;;;5097047;28;20267;-64
2022/06/10 07:00:31;;;;;;;4.60;1.80;;;;;;;;;;5096099;28;20323;-64
2022/06/10 07:03:00;;;;;;;5.43;2.03;;;;;;;;;;5096398;28;20202;-64
2022/06/10 07:05:29;;;;;;;5.00;1.53;;;;;;;;;;5093024;28;20267;-63
2022/06/10 07:07:58;;;;;;;4.80;1.50;;;;;;;;;;5093657;28;20217;-64
2022/06/10 07:10:26;;;;;;;4.60;2.00;;;;;;;;;;5094971;28;20202;-65
2022/06/10 07:12:55;;;;;;;1.90;1.37;;;;;;;;;;5090989;28;20202;-64
2022/06/10 07:15:23;;;;;;;2.70;1.53;;;;;;;;;;5098773;28;20233;-68
2022/06/10 07:17:57;;;;;;;6.13;2.00;;;;;;;;;;5099167;28;20223;-69
2022/06/10 07:20:27;;;;;;;5.80;1.73;;;;;;;;;;5096421;28;20571;-68
2022/06/10 07:22:57;;;;;;;2.87;1.90;;;;;;;;;;5096027;28;20205;-64
2022/06/10 07:25:27;;;;;;;6.13;1.50;;;;;;;;;;5092347;28;20217;-65
2022/06/10 07:28:01;;;;;;;6.10;2.03;;;;;;;;;;5097828;28;20233;-64
2022/06/10 07:30:30;;;;;;;5.90;1.60;;;;;;;;;;5096462;28;20637;-64
2022/06/10 07:33:00;;;;;;;7.07;1.67;;;;;;;;;;5095383;28;20283;-65
2022/06/10 07:35:29;;;;;;;2.97;1.50;;;;;;;;;;5098892;28;20260;-64
2022/06/10 07:37:58;;;;;;;4.37;2.07;;;;;;;;;;5095937;28;20300;-65
2022/06/10 07:43:37;;;;;;;4.13;1.60;;;;;;;;;;5081034;28;20212;-64
2022/06/10 07:46:06;;;;;;;7.70;2.10;;;;;;;;;;5086584;28;20610;-64
2022/06/10 07:48:35;;;;;;;5.63;1.73;;;;;;;;;;5093784;28;20193;-63
2022/06/10 07:51:03;;;;;;;5.93;1.40;;;;;;;;;;5082469;28;20206;-63
2022/06/10 07:53:31;;;;;;;4.97;1.40;;;;;;;;;;5099854;28;20202;-65
2022/06/10 07:56:00;;;;;;;4.87;2.00;;;;;;;;;;5094491;28;20252;-64
2022/06/10 07:58:29;;;;;;;5.60;1.60;;;;;;;;;;5094580;28;20279;-68
2022/06/10 08:00:58;;;;;;;4.60;1.40;;;;;;;;;;5096596;28;20194;-68
2022/06/10 08:03:27;;;;;;;8.17;2.50;;;;;;;;;;5092216;28;20231;-68
2022/06/10 08:05:58;;;;;;;5.23;1.57;;;;;;;;;;5101006;28;20658;-67
2022/06/10 08:08:26;;;;;;;6.60;1.60;;;;;;;;;;5090731;28;20209;-67
2022/06/10 08:10:55;;;;;;;2.90;1.30;;;;;;;;;;5100810;28;20229;-65
2022/06/10 08:13:23;;;;;;;4.03;1.80;;;;;;;;;;5096218;28;20197;-66
2022/06/10 08:15:56;;;;;;;8.73;2.00;;;;;;;;;;5108775;28;20208;-68
2022/06/10 08:18:24;;;;;;;4.43;1.10;;;;;;;;;;5098887;28;20204;-66
2022/06/10 08:23:41;;;;;;;5.87;1.70;;;;;;;;;;5098832;28;20235;-63
2022/06/10 08:26:10;;;;;;;2.77;1.80;;;;;;;;;;5098411;28;20253;-62
2022/06/10 08:28:39;;;;;;;6.23;1.93;;;;;;;;;;5088332;28;20257;-61
2022/06/10 08:31:07;;;;;;;7.37;1.80;;;;;;;;;;5101852;28;20237;-62
2022/06/10 08:33:35;;;;;;;4.37;1.40;;;;;;;;;;5105275;28;20212;-62
2022/06/10 08:36:04;;;;;;;2.60;1.33;;;;;;;;;;5097611;28;20217;-65
2022/06/10 08:38:32;;;;;;;5.57;1.90;;;;;;;;;;5099515;28;20212;-61
2022/06/10 08:41:11;;;;;;;2.80;1.80;;;;;;;;;;5098950;28;20205;-62
2022/06/10 08:43:46;;;;;;;8.17;1.67;;;;;;;;;;5097340;28;20195;-61
2022/06/10 08:46:20;;;;;;;4.10;1.57;;;;;;;;;;5094302;28;20618;-60
2022/06/10 08:48:56;;;;;;;6.97;2.60;;;;;;;;;;5095542;28;20228;-63
2022/06/10 08:51:28;;;;;;;7.33;1.87;;;;;;;;;;5100229;28;20205;-65
2022/06/10 08:54:01;;;;;;;2.80;1.83;;;;;;;;;;5093329;28;20652;-62
2022/06/10 08:56:33;;;;;;;5.67;1.80;;;;;;;;;;5097841;28;20210;-61
2022/06/10 08:59:03;;;;;;;2.77;1.07;;;;;;;;;;5093969;28;20200;-61
2022/06/10 09:01:35;;;;;;;6.13;1.77;;;;;;;;;;5097406;28;20726;-62
2022/06/10 09:04:09;;;;;;;3.30;1.87;;;;;;;;;;5084470;28;20229;-62
2022/06/10 09:06:40;;;;;;;6.57;1.67;;;;;;;;;;5095584;28;20274;-62
2022/06/10 09:09:08;;;;;;;3.57;1.17;;;;;;;;;;5094657;28;20210;-62
2022/06/10 09:11:39;;;;;;;4.57;1.47;;;;;;;;;;5098010;28;20214;-63
2022/06/10 09:14:10;;;;;;;3.00;1.57;;;;;;;;;;5106381;28;20205;-64
2022/06/10 09:16:41;;;;;;;2.90;1.33;;;;;;;;;;5099759;28;20220;-63
2022/06/10 09:19:11;;;;;;;1.97;1.13;;;;;;;;;;5098325;28;20618;-66
2022/06/10 09:21:42;;;;;;;7.23;1.20;;;;;;;;;;5099540;28;20199;-66
2022/06/10 09:24:17;;;;;;;4.07;1.40;;;;;;;;;;5102808;28;20262;-65
2022/06/10 09:26:50;;;;;;;3.40;1.43;;;;;;;;;;5089360;28;20314;-63
2022/06/10 09:29:18;;;;;;;2.87;1.63;;;;;;;;;;5084253;28;20233;-63
2022/06/10 09:31:54;;;;;;;1.57;1.10;;;;;;;;;;5096544;28;20649;-62
2022/06/10 09:34:27;;;;;;;4.00;1.50;;;;;;;;;;5090362;28;20235;-62
2022/06/10 09:37:00;;;;;;;3.30;1.20;;;;;;;;;;5096660;28;20696;-62
2022/06/10 09:42:22;;;;;;;3.73;1.10;;;;;;;;;;5097099;28;20209;-62
2022/06/10 09:44:53;;;;;;;2.20;1.00;;;;;;;;;;5099542;28;20548;-62
2022/06/10 09:47:32;;;;;;;2.23;1.10;;;;;;;;;;5089122;28;20224;-62
2022/06/10 09:50:09;;;;;;;1.97;1.33;;;;;;;;;;5098136;28;20276;-62
2022/06/10 09:52:42;;;;;;;5.23;1.40;;;;;;;;;;5099072;28;20236;-62
2022/06/10 09:55:20;;;;;;;4.70;1.30;;;;;;;;;;5089950;28;20204;-62
2022/06/10 09:58:00;;;;;;;4.10;1.27;;;;;;;;;;5090410;28;20273;-62
2022/06/10 10:00:31;;;;;;;4.63;1.03;;;;;;;;;;5092228;28;20197;-62
2022/06/10 10:03:04;;;;;;;2.57;1.13;;;;;;;;;;5093666;28;20206;-61
2022/06/10 10:05:37;;;;;;;5.23;2.20;;;;;;;;;;5091281;28;20231;-62
2022/06/10 10:08:12;;;;;;;4.13;1.87;;;;;;;;;;5086044;28;20226;-63
2022/06/10 10:10:47;;;;;;;6.13;1.63;;;;;;;;;;5090267;28;20248;-62
2022/06/10 10:13:30;;;;;;;2.53;1.03;;;;;;;;;;5095097;28;20202;-62
2022/06/10 10:16:05;;;;;;;2.87;1.73;;;;;;;;;;5087232;28;20206;-63
2022/06/10 10:18:45;;;;;;;2.30;1.10;;;;;;;;;;5098125;28;20205;-63
2022/06/10 10:21:14;;;;;;;2.63;1.10;;;;;;;;;;5098357;28;20688;-62
2022/06/10 10:23:44;;;;;;;6.20;1.50;;;;;;;;;;5091381;28;20220;-63
2022/06/10 10:26:16;;;;;;;2.50;1.20;;;;;;;;;;5092958;28;20245;-62
2022/06/10 10:28:45;;;;;;;4.47;1.20;;;;;;;;;;5098567;28;20207;-63
2022/06/10 10:31:16;;;;;;;3.73;1.20;;;;;;;;;;5092010;28;20212;-62
2022/06/10 10:33:45;;;;;;;2.93;1.30;;;;;;;;;;5088870;28;20440;-62
2022/06/10 10:36:17;;;;;;;2.87;1.47;;;;;;;;;;5097875;28;20244;-64
2022/06/10 10:38:46;;;;;;;2.90;1.23;;;;;;;;;;5094870;28;20654;-67
2022/06/10 10:41:19;;;;;;;3.30;1.30;;;;;;;;;;5096025;28;20260;-67
2022/06/10 10:43:49;;;;;;;4.20;1.27;;;;;;;;;;5096616;28;20694;-67
2022/06/10 10:46:29;;;;;;;2.37;1.20;;;;;;;;;;5096220;28;20649;-63
2022/06/10 10:48:58;;;;;;;2.70;1.50;;;;;;;;;;5089137;28;20231;-64
2022/06/10 10:51:29;;;;;;;2.03;1.43;;;;;;;;;;5090753;28;20202;-68
2022/06/10 10:54:19;;;;;;;3.73;1.40;;;;;;;;;;5093398;28;20218;-65
2022/06/10 10:56:49;;;;;;;1.63;1.33;;;;;;;;;;5094521;28;20694;-68
2022/06/10 10:59:32;;;;;;;2.77;1.23;;;;;;;;;;5094213;28;20201;-68
2022/06/10 11:02:02;;;;;;;3.70;1.20;;;;;;;;;;5090810;28;20246;-65
2022/06/10 11:04:32;;;;;;;2.43;1.43;;;;;;;;;;5096060;28;20264;-63
2022/06/10 11:07:05;;;;;;;3.57;1.10;;;;;;;;;;5095067;28;20224;-65
2022/06/10 11:09:55;;;;;;;3.53;1.10;;;;;;;;;;5093807;28;20229;-65
2022/06/10 11:12:26;;;;;;;2.50;1.07;;;;;;;;;;5094257;28;20686;-63
2022/06/10 11:14:59;;;;;;;2.97;1.07;;;;;;;;;;5086768;28;20211;-63
2022/06/10 11:17:29;;;;;;;2.17;1.43;;;;;;;;;;5090550;28;20636;-65
2022/06/10 11:19:59;;;;;;;2.17;1.33;;;;;;;;;;5080477;28;20253;-63
2022/06/10 11:22:28;;;;;;;5.27;1.33;;;;;;;;;;5097713;28;20211;-63
2022/06/10 11:25:15;;;;;;;1.73;0.90;;;;;;;;;;5097285;28;20207;-63
2022/06/10 11:27:58;;;;;;;5.43;1.50;;;;;;;;;;5093002;28;20227;-63
2022/06/10 11:30:33;;;;;;;2.47;1.30;;;;;;;;;;5095038;28;20262;-64
2022/06/10 11:33:05;;;;;;;2.33;0.93;;;;;;;;;;5092459;28;20239;-64
2022/06/10 11:35:37;;;;;;;2.67;1.10;;;;;;;;;;5094991;28;20203;-64
2022/06/10 11:38:07;;;;;;;1.97;1.30;;;;;;;;;;5093056;28;20226;-65
2022/06/10 11:40:40;;;;;;;2.27;0.90;;;;;;;;;;5090495;28;20238;-64
2022/06/10 11:43:14;;;;;;;2.03;1.00;;;;;;;;;;5093689;28;20211;-67
2022/06/10 11:45:45;;;;;;;2.77;1.33;;;;;;;;;;5094767;28;20202;-64
2022/06/10 11:48:17;;;;;;;0.80;0.70;;;;;;;;;;5091463;28;20230;-67
2022/06/10 11:50:50;;;;;;;3.93;1.10;;;;;;;;;;5093196;28;20195;-64
2022/06/10 11:53:22;;;;;;;4.17;1.00;;;;;;;;;;5090950;28;20230;-67
2022/06/10 11:59:42;;;;;;;3.70;1.60;;;;;;;;;;5096495;28;20206;-72
2022/06/10 12:01:29;;;;;;;4.93;1.57;;;;;;;;;;5091814;28;20207;-73
2022/06/10 12:04:01;;;;;;;3.77;1.27;;;;;;;;;;5093366;28;20237;-72
2022/06/10 12:06:32;;;;;;;2.00;1.37;;;;;;;;;;5093609;28;20225;-72
2022/06/10 12:09:02;;;;;;;1.90;0.90;;;;;;;;;;5091286;28;20229;-72
2022/06/10 12:11:34;;;;;;;1.70;1.43;;;;;;;;;;5092959;28;20239;-72
2022/06/10 12:14:05;;;;;;;3.63;1.70;;;;;;;;;;5094994;28;20262;-72
2022/06/10 12:16:42;;;;;;;7.10;1.27;;;;;;;;;;5090820;28;20221;-72
2022/06/10 12:19:14;;;;;;;2.23;1.10;;;;;;;;;;5093794;28;20202;-72
2022/06/10 12:21:43;;;;;;;1.73;1.30;;;;;;;;;;5093901;28;20217;-72
2022/06/10 12:24:13;;;;;;;2.70;1.50;;;;;;;;;;5096018;28;20220;-72
2022/06/10 12:26:46;;;;;;;2.53;1.10;;;;;;;;;;5094209;28;20277;-72
2022/06/10 12:29:17;;;;;;;4.53;1.80;;;;;;;;;;5096037;28;20229;-71
2022/06/10 12:31:48;;;;;;;1.30;1.10;;;;;;;;;;5091825;28;20760;-71
2022/06/10 12:34:24;;;;;;;2.87;1.70;;;;;;;;;;5096479;28;20204;-70
2022/06/10 12:36:56;;;;;;;1.57;0.97;;;;;;;;;;5092222;28;20304;-71
2022/06/10 12:39:26;;;;;;;3.07;1.00;;;;;;;;;;5093375;28;20202;-70
2022/06/10 12:41:57;;;;;;;1.37;1.10;;;;;;;;;;5094721;28;20700;-70
2022/06/10 12:44:26;;;;;;;2.23;1.00;;;;;;;;;;5094827;28;20722;-71
2022/06/10 12:46:56;;;;;;;1.37;1.00;;;;;;;;;;5091637;28;20221;-73
2022/06/10 12:49:29;;;;;;;5.53;2.00;;;;;;;;;;5091760;28;20232;-73
2022/06/10 12:52:05;;;;;;;0.83;0.83;;;;;;;;;;5098394;28;20200;-74
2022/06/10 12:54:38;;;;;;;3.37;1.60;;;;;;;;;;5092145;28;20619;-71
2022/06/10 12:57:24;;;;;;;3.83;1.03;;;;;;;;;;5099004;28;20223;-72
2022/06/10 13:00:20;;;;;;;3.17;1.60;;;;;;;;;;5096969;28;20210;-72
2022/06/10 13:02:53;;;;;;;2.37;1.10;;;;;;;;;;5097298;28;20663;-64
2022/06/10 13:05:26;;;;;;;2.30;1.17;;;;;;;;;;5093446;28;20276;-64
2022/06/10 13:07:55;;;;;;;3.97;2.07;;;;;;;;;;5093907;28;20227;-64
2022/06/10 13:10:45;;;;;;;2.37;1.10;;;;;;;;;;5098401;28;20575;-65
2022/06/10 13:13:17;;;;;;;1.77;1.10;;;;;;;;;;5098915;28;20234;-66
2022/06/10 13:15:51;;;;;;;2.07;1.00;;;;;;;;;;5099948;28;20215;-70
2022/06/10 13:18:40;;;;;;;1.93;1.33;;;;;;;;;;5086852;28;20206;-66
2022/06/10 13:21:12;;;;;;;2.30;0.80;;;;;;;;;;5095924;28;20222;-72
2022/06/10 13:23:53;;;;;;;2.73;1.47;;;;;;;;;;5107001;28;20206;-66
2022/06/10 13:26:23;;;;;;;1.90;0.77;;;;;;;;;;5090388;28;20223;-66
2022/06/10 13:28:51;;;;;;;3.27;1.63;;;;;;;;;;5100240;28;20224;-65
2022/06/10 13:31:24;;;;;;;2.17;0.90;;;;;;;;;;5099627;28;20600;-66
2022/06/10 13:33:54;;;;;;;6.43;1.70;;;;;;;;;;5094241;28;20259;-65
2022/06/10 13:36:24;;;;;;;0.87;0.80;;;;;;;;;;5093074;28;20235;-70
2022/06/10 13:38:54;;;;;;;1.60;0.77;;;;;;;;;;5099333;28;20767;-69
2022/06/10 13:44:19;;;;;;;3.00;1.00;;;;;;;;;;5091204;28;20201;-69
2022/06/10 13:46:48;;;;;;;1.80;1.03;;;;;;;;;;5093185;28;20704;-69
2022/06/10 13:49:18;;;;;;;1.00;0.80;;;;;;;;;;5091682;28;20695;-68
2022/06/10 13:51:51;;;;;;;4.03;1.30;;;;;;;;;;5090783;28;20201;-68
2022/06/10 13:54:22;;;;;;;3.87;1.70;;;;;;;;;;5097035;28;20234;-68
2022/06/10 13:56:51;;;;;;;2.23;1.17;;;;;;;;;;5095136;28;20221;-72
2022/06/10 13:59:23;;;;;;;1.70;1.17;;;;;;;;;;5102411;28;20295;-66
2022/06/10 14:01:53;;;;;;;1.67;1.10;;;;;;;;;;5092691;28;20293;-67
2022/06/10 14:04:23;;;;;;;2.60;1.20;;;;;;;;;;5098684;28;20738;-66
2022/06/10 14:06:55;;;;;;;7.00;0.77;;;;;;;;;;5100196;28;20217;-65
2022/06/10 14:09:24;;;;;;;5.13;1.10;;;;;;;;;;5095677;28;20293;-65
2022/06/10 14:12:04;;;;;;;6.87;1.20;;;;;;;;;;5090980;28;20212;-66
2022/06/10 14:14:32;;;;;;;1.47;0.90;;;;;;;;;;5094243;28;20645;-66
2022/06/10 14:17:02;;;;;;;3.13;1.60;;;;;;;;;;5095543;28;20799;-69
2022/06/10 14:19:32;;;;;;;3.60;1.33;;;;;;;;;;5102971;28;20284;-65
2022/06/10 14:22:16;;;;;;;1.87;1.23;;;;;;;;;;5092884;28;20199;-67
2022/06/10 14:25:05;;;;;;;4.57;1.23;;;;;;;;;;5090536;28;20203;-67
2022/06/10 14:27:34;;;;;;;2.37;1.10;;;;;;;;;;5094236;28;20279;-67
2022/06/10 14:30:05;;;;;;;1.67;0.80;;;;;;;;;;5093701;28;20217;-66
2022/06/10 14:32:35;;;;;;;3.67;1.60;;;;;;;;;;5087085;28;20270;-67
2022/06/10 14:35:23;;;;;;;1.40;0.80;;;;;;;;;;5105400;28;20221;-68
2022/06/10 14:38:01;;;;;;;1.80;1.20;;;;;;;;;;5097719;28;20220;-68
2022/06/10 14:40:29;;;;;;;1.37;1.27;;;;;;;;;;5093997;28;20204;-65
2022/06/10 14:43:02;;;;;;;2.83;0.90;;;;;;;;;;5093724;28;20229;-64
2022/06/10 14:45:33;;;;;;;2.50;0.97;;;;;;;;;;5099232;28;20697;-67
2022/06/10 14:48:04;;;;;;;3.87;1.10;;;;;;;;;;5095647;28;20224;-70
2022/06/10 14:50:32;;;;;;;2.20;1.03;;;;;;;;;;5096091;28;20232;-72
2022/06/10 14:53:02;;;;;;;1.87;1.77;;;;;;;;;;5092441;28;20252;-73
2022/06/10 14:55:32;;;;;;;5.63;1.10;;;;;;;;;;5094236;28;20212;-70
2022/06/10 14:58:01;;;;;;;1.80;1.03;;;;;;;;;;5094068;28;20222;-74
2022/06/10 15:00:32;;;;;;;1.97;1.27;;;;;;;;;;5091408;28;20228;-73
2022/06/10 15:03:01;;;;;;;2.90;1.10;;;;;;;;;;5096049;28;20216;-68
2022/06/10 15:08:18;;;;;;;3.27;1.20;;;;;;;;;;5082236;28;20205;-71
2022/06/10 15:10:48;;;;;;;0.80;0.80;;;;;;;;;;5085506;28;20224;-67
2022/06/10 15:13:18;;;;;;;3.10;1.77;;;;;;;;;;5088707;28;20257;-71
2022/06/10 15:15:47;;;;;;;2.53;1.40;;;;;;;;;;5093716;28;20740;-65
2022/06/10 15:18:16;;;;;;;1.40;1.30;;;;;;;;;;5088059;28;20195;-70
2022/06/10 15:20:46;;;;;;;2.93;1.70;;;;;;;;;;5093690;28;20201;-66
2022/06/10 15:23:16;;;;;;;2.17;1.00;;;;;;;;;;5100524;28;20196;-70
2022/06/10 15:25:48;;;;;;;3.23;1.20;;;;;;;;;;5096563;28;20208;-70
2022/06/10 15:28:17;;;;;;;3.60;1.80;;;;;;;;;;5099601;28;20230;-69